createdAt,value
2019-01-11T00:01:39.953Z,9.38
2019-01-11T00:04:09.400Z,9.43
2019-01-11T00:06:38.683Z,8.90
2019-01-11T00:09:08.299Z,9.80
2019-01-11T00:11:37.697Z,9.65
2019-01-11T00:14:07.133Z,9.33
2019-01-11T00:16:36.505Z,8.60
2019-01-11T00:19:07.193Z,8.65
2019-01-11T00:21:37.707Z,8.98
2019-01-11T00:24:06.999Z,8.73
2019-01-11T00:26:36.502Z,8.60
2019-01-11T00:29:05.903Z,9.93
2019-01-11T00:31:35.211Z,9.63
2019-01-11T00:34:05.603Z,9.08
2019-01-11T00:36:35.036Z,8.70
2019-01-11T00:39:05.743Z,9.00
2019-01-11T00:41:35.146Z,9.13
2019-01-11T00:44:04.778Z,7.75
2019-01-11T00:46:34.183Z,8.23
2019-01-11T00:49:03.690Z,8.08
2019-01-11T00:51:33.088Z,9.08
2019-01-11T00:54:02.451Z,7.95
2019-01-11T00:56:31.744Z,7.80
2019-01-11T00:59:01.132Z,7.87
2019-01-11T01:01:30.697Z,6.92
2019-01-11T01:04:00.199Z,8.30
2019-01-11T01:06:29.517Z,7.60
2019-01-11T01:08:59.005Z,7.87
2019-01-11T01:11:28.612Z,8.05
2019-01-11T01:13:58.018Z,8.33
2019-01-11T01:16:27.295Z,6.75
2019-01-11T01:18:56.752Z,8.05
2019-01-11T01:21:26.075Z,7.12
2019-01-11T01:23:55.523Z,7.00
2019-01-11T01:26:24.975Z,7.90
2019-01-11T01:28:54.328Z,8.20
2019-01-11T01:31:23.699Z,7.45
2019-01-11T01:33:53.132Z,7.40
2019-01-11T01:36:22.736Z,8.20
2019-01-11T01:38:52.116Z,7.62
2019-01-11T01:41:21.431Z,6.40
2019-01-11T01:43:50.840Z,6.87
2019-01-11T01:46:20.345Z,7.37
2019-01-11T01:48:49.650Z,6.85
2019-01-11T01:51:19.017Z,6.85
2019-01-11T01:53:49.480Z,6.65
2019-01-11T01:56:20.851Z,6.55
2019-01-11T01:58:49.894Z,8.40
2019-01-11T02:01:19.324Z,7.65
2019-01-11T02:03:48.624Z,7.75
2019-01-11T02:06:18.131Z,7.45
2019-01-11T02:08:47.409Z,7.03
2019-01-11T02:11:16.835Z,7.15
2019-01-11T02:13:46.236Z,6.55
2019-01-11T02:16:15.508Z,7.40
2019-01-11T02:18:44.895Z,7.47
2019-01-11T02:21:14.313Z,7.28
2019-01-11T02:23:43.947Z,6.67
2019-01-11T02:26:13.277Z,6.95
2019-01-11T02:28:42.668Z,6.97
2019-01-11T02:31:12.154Z,7.33
2019-01-11T02:33:41.558Z,8.05
2019-01-11T02:36:11.947Z,7.10
2019-01-11T02:38:42.933Z,7.87
2019-01-11T02:41:13.296Z,7.67
2019-01-11T02:43:42.750Z,7.20
2019-01-11T02:46:12.257Z,7.33
2019-01-11T02:48:41.763Z,7.15
2019-01-11T02:51:11.086Z,7.35
2019-01-11T02:53:40.415Z,8.05
2019-01-11T02:56:09.707Z,7.10
2019-01-11T02:58:39.047Z,6.65
2019-01-11T03:01:08.468Z,7.10
2019-01-11T03:03:37.842Z,7.00
2019-01-11T03:06:07.164Z,6.75
2019-01-11T03:08:37.486Z,6.70
2019-01-11T03:11:06.839Z,7.12
2019-01-11T03:13:38.015Z,7.50
2019-01-11T03:16:07.327Z,7.08
2019-01-11T03:18:36.738Z,7.10
2019-01-11T03:21:06.120Z,6.78
2019-01-11T03:23:35.545Z,6.67
2019-01-11T03:26:04.834Z,6.95
2019-01-11T03:28:34.248Z,7.20
2019-01-11T03:31:05.208Z,6.67
2019-01-11T03:33:34.588Z,6.53
2019-01-11T03:36:04.101Z,7.40
2019-01-11T03:38:33.474Z,6.05
2019-01-11T03:41:02.897Z,7.00
2019-01-11T03:43:33.937Z,6.85
2019-01-11T03:46:03.346Z,6.65
2019-01-11T03:48:32.745Z,5.75
2019-01-11T03:51:03.298Z,5.60
2019-01-11T03:53:32.675Z,5.67
2019-01-11T03:56:02.079Z,5.80
2019-01-11T03:58:31.694Z,5.05
2019-01-11T04:01:01.408Z,5.87
2019-01-11T04:03:31.108Z,5.87
2019-01-11T04:06:00.719Z,7.10
2019-01-11T04:08:30.274Z,5.72
2019-01-11T04:10:59.823Z,5.90
2019-01-11T04:13:30.620Z,6.08
2019-01-11T04:16:01.322Z,6.42
2019-01-11T04:18:34.551Z,4.85
2019-01-11T04:21:03.988Z,4.65
2019-01-11T04:23:33.441Z,4.55
2019-01-11T04:26:02.705Z,4.40
2019-01-11T04:28:32.058Z,5.28
2019-01-11T04:31:01.598Z,4.90
2019-01-11T04:33:32.638Z,5.40
2019-01-11T04:36:02.084Z,4.90
2019-01-11T04:38:33.434Z,4.55
2019-01-11T04:41:02.701Z,5.05
2019-01-11T04:43:32.299Z,5.08
2019-01-11T04:46:01.702Z,5.25
2019-01-11T04:48:31.415Z,4.95
2019-01-11T04:51:01.021Z,5.60
2019-01-11T04:53:30.735Z,5.28
2019-01-11T04:56:00.441Z,5.33
2019-01-11T04:58:30.152Z,5.47
2019-01-11T05:00:59.842Z,4.62
2019-01-11T05:03:29.569Z,5.03
2019-01-11T05:05:59.280Z,5.55
2019-01-11T05:08:28.989Z,5.72
2019-01-11T05:10:58.594Z,6.67
2019-01-11T05:13:31.615Z,5.87
2019-01-11T05:16:01.000Z,5.45
2019-01-11T05:18:30.561Z,5.15
2019-01-11T05:20:59.990Z,5.70
2019-01-11T05:23:29.354Z,6.12
2019-01-11T05:25:58.798Z,5.58
2019-01-11T05:28:28.264Z,6.62
2019-01-11T05:30:59.010Z,6.35
2019-01-11T05:33:28.317Z,6.65
2019-01-11T05:35:57.645Z,6.12
2019-01-11T05:38:27.039Z,6.22
2019-01-11T05:40:56.751Z,7.15
2019-01-11T05:43:26.154Z,7.67
2019-01-11T05:45:55.862Z,7.22
2019-01-11T05:48:25.365Z,8.93
2019-01-11T05:50:54.764Z,8.80
2019-01-11T05:53:24.066Z,8.80
2019-01-11T05:55:53.465Z,8.78
2019-01-11T05:58:24.411Z,8.33
2019-01-11T06:00:54.122Z,9.45
2019-01-11T06:03:23.831Z,9.83
2019-01-11T06:05:53.336Z,8.83
2019-01-11T06:08:23.148Z,19.75
2019-01-11T06:10:52.862Z,13.03
2019-01-11T06:13:22.567Z,13.05
2019-01-11T06:15:52.280Z,10.10
2019-01-11T06:18:21.987Z,10.20
2019-01-11T06:20:51.696Z,9.70
2019-01-11T06:23:21.406Z,9.38
2019-01-11T06:25:51.117Z,8.78
2019-01-11T06:28:20.828Z,10.18
2019-01-11T06:30:50.536Z,10.15
2019-01-11T06:33:19.935Z,9.98
2019-01-11T06:35:49.335Z,9.58
2019-01-11T06:38:18.839Z,9.33
2019-01-11T06:40:48.243Z,9.75
2019-01-11T06:43:17.647Z,10.75
2019-01-11T06:45:47.049Z,9.83
2019-01-11T06:48:18.083Z,10.50
2019-01-11T06:50:47.489Z,11.20
2019-01-11T06:53:18.620Z,10.08
2019-01-11T06:55:48.858Z,9.35
2019-01-11T06:58:18.335Z,9.63
2019-01-11T07:00:47.760Z,10.75
2019-01-11T07:03:17.162Z,10.88
2019-01-11T07:05:46.387Z,11.00
2019-01-11T07:08:17.674Z,10.88
2019-01-11T07:10:46.701Z,10.98
2019-01-11T07:13:16.103Z,11.80
2019-01-11T07:15:45.504Z,11.63
2019-01-11T07:18:15.013Z,11.40
2019-01-11T07:20:44.579Z,11.25
2019-01-11T07:23:14.225Z,11.05
2019-01-11T07:25:43.626Z,9.90
2019-01-11T07:28:13.739Z,11.15
2019-01-11T07:30:53.695Z,11.10
2019-01-11T07:33:23.821Z,10.95
2019-01-11T07:35:54.829Z,10.35
2019-01-11T07:38:24.158Z,11.05
2019-01-11T07:40:54.528Z,11.15
2019-01-11T07:43:23.849Z,10.85
2019-01-11T07:45:53.386Z,9.75
2019-01-11T07:48:22.764Z,11.97
2019-01-11T07:50:53.111Z,10.63
2019-01-11T07:53:22.446Z,12.95
2019-01-11T07:55:51.919Z,10.55
2019-01-11T07:58:21.284Z,9.95
2019-01-11T08:00:50.698Z,9.15
2019-01-11T08:03:20.226Z,11.80
2019-01-11T08:05:49.510Z,10.45
2019-01-11T08:08:18.803Z,10.55
2019-01-11T08:10:48.235Z,8.50
2019-01-11T08:13:18.041Z,15.55
2019-01-11T08:15:47.420Z,13.43
2019-01-11T08:18:16.848Z,10.43
2019-01-11T08:20:46.253Z,9.63
2019-01-11T08:23:16.730Z,9.18
2019-01-11T08:25:46.017Z,9.45
2019-01-11T08:28:16.582Z,8.58
2019-01-11T08:30:45.991Z,10.15
2019-01-11T08:33:18.722Z,9.03
2019-01-11T08:35:47.539Z,9.33
2019-01-11T08:38:16.825Z,9.23
2019-01-11T08:40:46.147Z,9.40
2019-01-11T08:43:15.587Z,8.65
2019-01-11T08:45:44.872Z,8.85
2019-01-11T08:48:14.287Z,9.20
2019-01-11T08:50:43.685Z,10.18
2019-01-11T08:53:13.090Z,10.30
2019-01-11T08:55:42.493Z,9.08
2019-01-11T08:58:11.817Z,9.38
2019-01-11T09:00:41.393Z,9.70
2019-01-11T09:03:10.704Z,8.60
2019-01-11T09:05:40.042Z,9.88
2019-01-11T09:08:09.377Z,8.75
2019-01-11T09:10:38.803Z,9.23
2019-01-11T09:13:08.062Z,9.45
2019-01-11T09:15:37.381Z,10.18
2019-01-11T09:18:16.550Z,9.55
2019-01-11T09:20:45.939Z,8.85
2019-01-11T09:23:16.308Z,8.58
2019-01-11T09:25:45.665Z,8.90
2019-01-11T09:28:14.947Z,9.25
2019-01-11T09:30:44.546Z,9.60
2019-01-11T09:33:20.094Z,8.83
2019-01-11T09:35:44.807Z,8.60
2019-01-11T09:38:14.940Z,8.95
2019-01-11T09:40:44.538Z,8.73
2019-01-11T09:43:13.918Z,8.38
2019-01-11T09:45:43.217Z,8.10
2019-01-11T09:48:12.538Z,8.33
2019-01-11T09:50:42.039Z,8.23
2019-01-11T09:53:12.685Z,8.25
2019-01-11T09:55:41.914Z,7.67
2019-01-11T09:58:11.230Z,7.45
2019-01-11T10:00:40.671Z,8.65
2019-01-11T10:03:10.083Z,7.15
2019-01-11T10:05:39.581Z,7.85
2019-01-11T10:08:09.936Z,7.28
2019-01-11T10:10:40.641Z,6.33
2019-01-11T10:13:10.045Z,7.12
2019-01-11T10:15:39.446Z,8.15
2019-01-11T10:18:08.849Z,7.03
2019-01-11T10:20:38.106Z,6.72
2019-01-11T10:23:07.428Z,6.97
2019-01-11T10:25:36.926Z,6.70
2019-01-11T10:28:06.356Z,6.72
2019-01-11T10:30:36.648Z,6.47
2019-01-11T10:33:05.983Z,6.58
2019-01-11T10:35:35.354Z,6.42
2019-01-11T10:38:04.786Z,5.72
2019-01-11T10:40:34.187Z,6.33
2019-01-11T10:43:03.519Z,5.35
2019-01-11T10:45:32.891Z,5.05
2019-01-11T10:48:02.187Z,6.20
2019-01-11T10:50:31.690Z,5.47
2019-01-11T10:53:00.982Z,5.37
2019-01-11T10:55:30.264Z,5.92
2019-01-11T10:58:01.836Z,4.85
2019-01-11T11:00:31.250Z,5.05
2019-01-11T11:03:01.266Z,4.80
2019-01-11T11:05:32.536Z,5.37
2019-01-11T11:08:01.712Z,4.83
2019-01-11T11:10:32.806Z,5.17
2019-01-11T11:13:03.367Z,5.05
2019-01-11T11:15:34.524Z,4.97
2019-01-11T11:18:03.575Z,5.30
2019-01-11T11:20:34.044Z,5.35
2019-01-11T11:23:04.241Z,5.75
2019-01-11T11:25:33.674Z,5.90
2019-01-11T11:28:04.063Z,5.47
2019-01-11T11:30:33.715Z,5.33
2019-01-11T11:33:03.513Z,6.20
2019-01-11T11:35:33.783Z,5.28
2019-01-11T11:38:04.214Z,6.55
2019-01-11T11:40:33.775Z,7.08
2019-01-11T11:43:03.173Z,4.87
2019-01-11T11:45:32.469Z,5.08
2019-01-11T11:48:03.785Z,5.00
2019-01-11T11:50:32.816Z,5.45
2019-01-11T11:53:02.217Z,5.80
2019-01-11T11:55:31.662Z,7.58
2019-01-11T11:58:01.092Z,4.60
2019-01-11T12:00:30.528Z,5.83
2019-01-11T12:02:59.929Z,10.68
2019-01-11T12:05:29.296Z,7.40
2019-01-11T12:07:58.714Z,6.45
2019-01-11T12:10:28.232Z,6.25
2019-01-11T12:12:57.539Z,5.92
2019-01-11T12:15:26.911Z,6.33
2019-01-11T12:17:56.344Z,6.35
2019-01-11T12:20:27.928Z,7.62
2019-01-11T12:22:57.265Z,6.90
2019-01-11T12:25:26.702Z,5.65
2019-01-11T12:27:56.104Z,6.12
2019-01-11T12:30:25.503Z,6.12
2019-01-11T12:32:54.800Z,6.67
2019-01-11T12:35:24.208Z,5.97
2019-01-11T12:37:53.611Z,6.08
2019-01-11T12:40:23.018Z,4.95
2019-01-11T12:42:52.382Z,5.33
2019-01-11T12:45:21.822Z,5.83
2019-01-11T12:47:51.103Z,6.95
2019-01-11T12:50:22.451Z,5.35
2019-01-11T12:52:51.723Z,5.65
2019-01-11T12:55:21.169Z,5.78
2019-01-11T12:57:50.468Z,6.12
2019-01-11T13:00:19.875Z,6.47
2019-01-11T13:02:49.276Z,5.95
2019-01-11T13:05:19.502Z,5.62
2019-01-11T13:07:48.792Z,6.22
2019-01-11T13:10:18.892Z,6.17
2019-01-11T13:12:48.321Z,6.78
2019-01-11T13:15:19.122Z,6.45
2019-01-11T13:17:48.437Z,6.80
2019-01-11T13:20:19.471Z,7.85
2019-01-11T13:22:49.308Z,7.80
2019-01-11T13:25:18.604Z,8.35
2019-01-11T13:27:48.013Z,8.05
2019-01-11T13:30:18.034Z,7.90
2019-01-11T13:32:47.434Z,7.95
2019-01-11T13:35:16.832Z,7.03
2019-01-11T13:37:46.341Z,8.35
2019-01-11T13:40:20.951Z,7.45
2019-01-11T13:42:50.396Z,6.95
2019-01-11T13:45:19.770Z,7.37
2019-01-11T13:47:50.281Z,8.65
2019-01-11T13:50:39.145Z,8.60
2019-01-11T13:53:10.899Z,8.63
2019-01-11T13:55:41.368Z,8.50
2019-01-11T13:58:10.811Z,7.15
2019-01-11T14:00:40.245Z,7.85
2019-01-11T14:03:09.607Z,8.43
2019-01-11T14:05:39.053Z,6.87
2019-01-11T14:08:08.458Z,8.55
2019-01-11T14:10:37.851Z,8.03
2019-01-11T14:13:07.267Z,7.95
2019-01-11T14:15:36.769Z,7.95
2019-01-11T14:18:06.790Z,7.42
2019-01-11T14:20:36.262Z,8.65
2019-01-11T14:23:06.809Z,8.93
2019-01-11T14:25:36.323Z,7.97
2019-01-11T14:28:05.873Z,7.28
2019-01-11T14:30:35.280Z,8.80
2019-01-11T14:33:04.920Z,8.30
2019-01-11T14:35:35.941Z,8.75
2019-01-11T14:38:05.377Z,8.60
2019-01-11T14:40:34.887Z,11.10
2019-01-11T14:43:04.436Z,9.38
2019-01-11T14:45:33.891Z,38.02
2019-01-11T14:48:03.395Z,13.90
2019-01-11T14:50:33.097Z,10.10
2019-01-11T14:53:02.618Z,20.77
2019-01-11T14:55:33.253Z,9.03
2019-01-11T14:58:02.939Z,8.80
2019-01-11T15:00:34.515Z,8.50
2019-01-11T15:03:07.376Z,9.78
2019-01-11T15:06:07.469Z,8.80
2019-01-11T15:08:37.119Z,9.30
2019-01-11T15:11:07.861Z,8.55
2019-01-11T15:13:37.568Z,9.50
2019-01-11T15:16:07.070Z,8.63
2019-01-11T15:18:37.087Z,8.80
2019-01-11T15:21:08.436Z,8.48
2019-01-11T15:23:38.308Z,8.95
2019-01-11T15:26:10.753Z,8.15
2019-01-11T15:28:43.404Z,8.20
2019-01-11T15:31:13.828Z,8.48
2019-01-11T15:33:45.306Z,8.95
2019-01-11T15:36:15.293Z,8.95
2019-01-11T15:38:45.766Z,8.70
2019-01-11T15:41:16.478Z,8.05
2019-01-11T15:43:50.695Z,8.83
2019-01-11T15:46:20.280Z,14.73
2019-01-11T15:48:51.556Z,10.05
2019-01-11T15:51:22.975Z,9.05
2019-01-11T15:56:43.253Z,9.68
2019-01-11T15:59:15.045Z,10.50
2019-01-11T16:01:46.758Z,11.40
2019-01-11T16:04:16.196Z,10.63
2019-01-11T16:06:46.324Z,10.60
2019-01-11T16:09:18.996Z,11.28
2019-01-11T16:11:53.505Z,12.37
2019-01-11T16:14:42.465Z,12.28
2019-01-11T16:17:18.188Z,11.18
2019-01-11T16:19:48.353Z,11.85
2019-01-11T16:22:19.012Z,12.43
2019-01-11T16:24:48.612Z,11.45
2019-01-11T16:27:20.172Z,11.70
2019-01-11T16:29:50.258Z,10.95
2019-01-11T16:32:20.971Z,10.03
2019-01-11T16:34:51.217Z,13.10
2019-01-11T16:37:21.769Z,23.15
2019-01-11T16:39:53.652Z,12.55
2019-01-11T16:42:23.723Z,12.03
2019-01-11T16:44:56.340Z,12.58
2019-01-11T16:47:38.120Z,10.43
2019-01-11T16:50:14.055Z,10.63
2019-01-11T16:52:46.539Z,12.20
2019-01-11T16:55:21.297Z,14.18
2019-01-11T16:57:51.865Z,12.40
2019-01-11T17:00:25.082Z,13.32
2019-01-11T17:02:55.618Z,12.33
2019-01-11T17:05:29.107Z,11.85
2019-01-11T17:08:02.504Z,11.25
2019-01-11T17:10:35.457Z,13.80
2019-01-11T17:13:06.572Z,16.12
2019-01-11T17:15:41.001Z,12.82
2019-01-11T17:18:13.631Z,10.63
2019-01-11T17:20:47.259Z,11.08
2019-01-11T17:23:18.108Z,10.38
2019-01-11T17:25:51.728Z,10.43
2019-01-11T17:28:24.595Z,9.60
2019-01-11T17:30:56.389Z,9.95
2019-01-11T17:33:26.940Z,9.53
2019-01-11T17:35:57.354Z,9.55
2019-01-11T17:38:28.445Z,10.10
2019-01-11T17:41:00.150Z,10.03
2019-01-11T17:43:30.118Z,9.33
2019-01-11T17:46:03.038Z,11.48
2019-01-11T17:48:33.427Z,8.15
2019-01-11T17:51:03.324Z,9.25
2019-01-11T17:53:33.146Z,9.48
2019-01-11T17:56:02.560Z,10.98
2019-01-11T17:58:32.447Z,9.18
2019-01-11T18:01:02.587Z,9.18
2019-01-11T18:03:32.825Z,9.33
2019-01-11T18:06:03.634Z,8.30
2019-01-11T18:08:33.407Z,12.33
2019-01-11T18:11:02.913Z,9.00
2019-01-11T18:13:32.407Z,8.35
2019-01-11T18:16:01.957Z,8.98
2019-01-11T18:18:31.506Z,7.25
2019-01-11T18:21:00.868Z,8.00
2019-01-11T18:23:30.505Z,6.75
2019-01-11T18:26:00.099Z,6.62
2019-01-11T18:28:29.488Z,5.75
2019-01-11T18:30:59.435Z,5.03
2019-01-11T18:33:29.668Z,4.62
2019-01-11T18:36:01.825Z,6.30
2019-01-11T18:38:32.420Z,5.90
2019-01-11T18:41:02.284Z,5.97
2019-01-11T18:43:31.898Z,5.05
2019-01-11T18:46:01.542Z,4.87
2019-01-11T18:48:30.868Z,5.08
2019-01-11T18:51:00.292Z,5.87
2019-01-11T18:53:29.720Z,6.78
2019-01-11T18:56:05.216Z,7.22
2019-01-11T18:58:30.150Z,6.83
2019-01-11T19:00:59.550Z,5.85
2019-01-11T19:03:29.113Z,5.75
2019-01-11T19:05:58.494Z,6.92
2019-01-11T19:08:28.049Z,7.60
2019-01-11T19:10:57.590Z,6.62
2019-01-11T19:13:27.311Z,7.45
2019-01-11T19:15:56.830Z,7.97
2019-01-11T19:18:26.529Z,6.90
2019-01-11T19:20:56.213Z,6.65
2019-01-11T19:23:26.474Z,6.85
2019-01-11T19:25:56.158Z,6.90
2019-01-11T19:28:25.411Z,6.78
2019-01-11T19:30:54.744Z,7.87
2019-01-11T19:33:24.093Z,8.23
2019-01-11T19:35:53.391Z,7.15
2019-01-11T19:38:22.857Z,8.48
2019-01-11T19:40:52.263Z,7.83
2019-01-11T19:43:21.668Z,8.03
2019-01-11T19:45:51.070Z,7.95
2019-01-11T19:48:20.592Z,8.50
2019-01-11T19:50:50.185Z,8.45
2019-01-11T19:53:19.600Z,8.10
2019-01-11T19:55:48.994Z,7.87
2019-01-11T19:58:18.344Z,8.68
2019-01-11T20:00:47.914Z,8.95
2019-01-11T20:03:17.389Z,8.20
2019-01-11T20:05:46.680Z,8.68
2019-01-11T20:08:16.338Z,8.70
2019-01-11T20:10:45.916Z,8.38
2019-01-11T20:13:15.344Z,9.28
2019-01-11T20:15:44.606Z,8.48
2019-01-11T20:18:15.459Z,9.03
2019-01-11T20:20:44.956Z,8.10
2019-01-11T20:23:14.778Z,8.70
2019-01-11T20:25:45.884Z,8.20
2019-01-11T20:28:15.628Z,8.75
2019-01-11T20:30:46.884Z,7.70
2019-01-11T20:33:16.015Z,8.23
2019-01-11T20:35:45.580Z,8.08
2019-01-11T20:38:15.043Z,8.50
2019-01-11T20:40:44.463Z,7.72
2019-01-11T20:43:13.933Z,8.70
2019-01-11T20:45:43.293Z,10.90
2019-01-11T20:48:12.820Z,9.70
2019-01-11T20:50:42.417Z,7.78
2019-01-11T20:53:11.946Z,8.80
2019-01-11T20:55:41.499Z,9.33
2019-01-11T20:58:10.884Z,8.83
2019-01-11T21:00:40.216Z,8.38
2019-01-11T21:03:09.535Z,8.03
2019-01-11T21:05:39.033Z,9.53
2019-01-11T21:08:08.446Z,8.90
2019-01-11T21:10:38.178Z,8.50
2019-01-11T21:13:07.643Z,8.70
2019-01-11T21:15:36.968Z,9.55
2019-01-11T21:18:06.297Z,8.78
2019-01-11T21:20:35.584Z,7.97
2019-01-11T21:23:04.878Z,8.10
2019-01-11T21:25:34.159Z,7.42
2019-01-11T21:28:03.501Z,8.13
2019-01-11T21:30:32.797Z,8.33
2019-01-11T21:33:02.121Z,8.23
2019-01-11T21:35:31.394Z,7.58
2019-01-11T21:38:00.725Z,8.33
2019-01-11T21:40:30.036Z,7.30
2019-01-11T21:42:59.337Z,7.60
2019-01-11T21:45:28.640Z,7.78
2019-01-11T21:47:57.952Z,8.45
2019-01-11T21:50:29.113Z,8.68
2019-01-11T21:52:58.616Z,7.90
2019-01-11T21:55:27.910Z,9.33
2019-01-11T21:57:57.280Z,8.35
2019-01-11T22:00:32.555Z,8.13
2019-01-11T22:03:01.889Z,7.45
2019-01-11T22:05:31.190Z,8.03
2019-01-11T22:08:00.486Z,8.23
2019-01-11T22:10:29.867Z,8.53
2019-01-11T22:12:59.194Z,7.80
2019-01-11T22:15:28.524Z,7.65
2019-01-11T22:17:57.803Z,10.35
2019-01-11T22:20:27.137Z,8.20
2019-01-11T22:22:56.406Z,8.13
2019-01-11T22:25:25.735Z,8.18
2019-01-11T22:27:55.171Z,7.75
2019-01-11T22:30:30.266Z,9.15
2019-01-11T22:32:56.447Z,8.80
2019-01-11T22:35:25.765Z,7.95
2019-01-11T22:37:55.150Z,7.62
2019-01-11T22:40:24.812Z,8.20
2019-01-11T22:42:56.130Z,8.18
2019-01-11T22:45:25.446Z,9.43
2019-01-11T22:47:54.823Z,8.90
2019-01-11T22:50:24.158Z,8.28
2019-01-11T22:52:53.445Z,8.43
2019-01-11T22:55:22.775Z,7.42
2019-01-11T22:57:52.077Z,7.72
2019-01-11T23:00:26.290Z,6.95
2019-01-11T23:02:58.663Z,9.50
2019-01-11T23:05:27.968Z,9.45
2019-01-11T23:07:57.894Z,9.33
2019-01-11T23:10:42.384Z,9.70
2019-01-11T23:13:11.708Z,9.93
2019-01-11T23:15:41.033Z,9.88
2019-01-11T23:18:10.350Z,9.95
2019-01-11T23:20:40.565Z,9.70
2019-01-11T23:23:09.881Z,9.48
2019-01-11T23:25:39.181Z,8.13
2019-01-11T23:28:08.573Z,8.80
2019-01-11T23:30:37.870Z,10.15
2019-01-11T23:33:07.190Z,8.85
2019-01-11T23:35:36.518Z,8.73
2019-01-11T23:38:05.849Z,8.48
2019-01-11T23:40:35.171Z,9.78
2019-01-11T23:43:04.443Z,8.98
2019-01-11T23:45:33.743Z,7.65
2019-01-11T23:48:03.057Z,7.08
2019-01-11T23:50:32.352Z,8.20
2019-01-11T23:53:01.671Z,7.72
2019-01-11T23:55:30.974Z,7.53
2019-01-11T23:58:00.253Z,6.83
